AirNav   Pilot Hours Calculator
 
 745 users online  

83OH Adams Strip Airport
Pleasant Hill, Ohio, USA

GOING TO PLEASANT HILL?


FAA INFORMATION EFFECTIVE 11 AUGUST 2022

Location

FAA Identifier: 83OH
Lat/Long: 40-03-44.1840N 084-22-45.8140W
40-03.736400N 084-22.763567W
40.0622733,-84.3793928
(estimated)
Elevation: 973 ft. / 297 m (estimated)
Variation: 04W (1990)
From city: 2 miles NW of PLEASANT HILL, OH
Time zone: UTC -4 (UTC -5 during Standard Time)
Zip code: 45359

Airport Operations

Airport use: Private use. Permission required prior to landing
Activation date: 10/1994
Control tower: no
ARTCC: INDIANAPOLIS CENTER
FSS: DAYTON FLIGHT SERVICE STATION
Attendance: 0800-1600
Wind indicator: yes
Segmented circle: no

Airport Communications

CTAF: 122.9
WX AWOS-3PT at VES (11 nm NW): 125.9 (937-526-3154)
WX ASOS at DAY (12 nm SE): PHONE 937-415-6819
WX AWOS-3 at SCA (15 nm NE): 120.425 (937-492-3683)

Nearby radio navigation aids

VOR radial/distance  VOR name  Freq  Var
DQNr017/2.9DAYTON VOR/DME114.5001W
RODr234/20.5ROSEWOOD VORTAC117.5005W

 
NDB name  Hdg/Dist  Freq  Var  ID
BRUNY357/13.131506WAT .- -
HOOK FIELD009/34.023904WHKF .... -.- ..-.

Airport Services

Runway Information

Runway 18/36

Dimensions: 2400 x 60 ft. / 732 x 18 m
Surface: turf
RUNWAY 18  RUNWAY 36
Traffic pattern: leftleft
Obstructions: 70 ft. bldg, 5280 ft. from runway406 ft. twr, 15840 ft. from runway

Airport Ownership and Management from official FAA records

Ownership: Privately-owned
Owner: SAMUEL L ADAMS
1460 N RANGELINE RD
PLEASANT HILL, OH 45359-9754
Phone 937-676-3036
Manager: DIRK L ADAMS
477 S SHILOH RD
PLEASANT HILL, OH 45359-9741
Phone 937-676-2739

Airport Operational Statistics

Aircraft based on the field: 3
Single engine airplanes: 3
    

Additional Remarks

FOR CD CTC COLUMBUS APCH AT 614-338-8537.

Instrument Procedures

There are no published instrument procedures at 83OH.

Some nearby airports with instrument procedures:

I17 - Piqua Airport/Hartzell Field (7 nm NE)
3I7 - Dayton-Phillipsburg Airport (9 nm S)
KVES - Darke County Airport (11 nm NW)
KDAY - James M Cox Dayton International Airport (12 nm SE)
KSCA - Sidney Municipal Airport (15 nm NE)
 
Loc | Ops | Rwys | IFR | FBO | Links
Com | Nav | Svcs | Stats | Notes
Area around 83OH (Adams Strip Airport)
 
Road maps at: MapQuest Bing Google
 
Aerial photo
No photo
 
Sectional chart

 
Airport distance calculator
Flying to Adams Strip Airport? Find the distance to fly.

From to 83OH

Sunrise and sunset
Times for 17-Aug-2022
 Local
(UTC-4)
 Zulu
(UTC)
Morning civil twilight06:2310:23
Sunrise06:5210:52
Sunset20:3100:31
Evening civil twilight21:0001:00

Current date and time
Zulu (UTC)  17-Aug-2022 06:01:32
Local (UTC-4)  17-Aug-2022 02:01:32
 
METAR
KVES 
11nm NW 
170455Z AUTO 02004KT 5SM BR BKN055 17/17 A3007 RMK AO2
KDAY 
12nm SE 
170456Z 36005KT 10SM SCT049 18/16 A3006 RMK AO2 SLP172 T01830156 402720161
KFFO 
22nm SE 
170556Z AUTO 00000KT 10SM CLR 17/15 A3001 RMK AO2 SLP161 T01660151 10228 20166 58001
TAF
KDAY 
12nm SE 
161720Z 1618/1718 03010KT P6SM SCT040 FM170100 04005KT P6SM SCT250 FM171500 04008KT P6SM SCT040
NOTAMs
Click for the latest NOTAMs
NOTAMs are issued by the DoD/FAA and will open in a separate window not controlled by AirNav.

 

 
 

Would you like to see your business listed on this page?

 If your business provides an interesting product or service to pilots, flight crews, aircraft, or users of the Adams Strip Airport, you should consider listing it here.  To start the listing process, click on the button below
 
Add a business
 

Other Pages about Adams Strip Airport

Update a link
 
Copyright © AirNav, LLC. All rights reserved. Privacy Policy  Contact